^^
LKKV - Karlovy Vary, Czech Republic
Entfernung von Station: O 36km
Aktualisierung: 16.02.2019 04:00
Klar
Klar
 Wind von SO
Wind: SO 4 km/h
Temperatur: -3°C
Taupunkt: -4°C
Luftfeuchte: 93%
Luftdruck: 1029 hPa
Zusammenfassung: Klar
Sicht: mehr als 10 km
2019/02/16 03:00 LKKV 160300Z 13002KT CAVOK M03/M04 Q1029
EDQM - Hof, Germany
Entfernung von Station: W 40km
Aktualisierung: 15.02.2019 19:50
nicht aktuell
Klar
Klar
 Wind von veränderlich
Wind: veränderlich 6 km/h
Temperatur: 4°C
Taupunkt: -2°C
Luftfeuchte: 65%
Luftdruck: 1031 hPa
Zusammenfassung: Klar
Sicht: mehr als 10 km
2019/02/15 18:50 EDQM 151850Z VRB03KT CAVOK 04/M02 Q1031
 
ETIC - Grafenwoehr, Germany
Entfernung von Station: SSW 72km
Aktualisierung: 16.02.2019 03:56
Klar
Klar
 Wind von calm
Wind: Windstill
Temperatur: -5°C
Taupunkt: -5°C
Luftfeuchte: 100%
Luftdruck: 1029.8 hPa
Wolken: Klar
Sicht: 10 km
2019/02/16 02:56 ETIC 160256Z AUTO 00000KT 9999 CLR M05/M05 A3041 RMK AO2 SLP316 T10541055 57010 FZRANO $
EDAC - Altenburg-Nobitz, Germany
Entfernung von Station: N 80km
Aktualisierung: 16.02.2019 04:20
Klar
Klar
 Wind von SO
Wind: SO 6 km/h
Temperatur: -1°C
Taupunkt: -3°C
Luftfeuchte: 86%
Luftdruck: 1029 hPa
Wolken: Klar
Sicht: 10 km
2019/02/16 03:20 EDAC 160320Z AUTO 14003KT 9999 // NCD M01/M03 Q1029
 
LKLN - Plzen Line, Czech Republic
Entfernung von Station: SO 88km
Aktualisierung: 16.02.2019 04:09
Nebel, Klar
Nebel, Klar
 Wind von calm
Wind: Windstill
Temperatur: -3°C
Taupunkt: -3°C
Luftfeuchte: 100%
Luftdruck: 1031 hPa
Zusammenfassung: Nebel
Wolken: Klar
Sicht: 5 km
2019/02/16 03:09 LKLN 160309Z AUTO 00000KT 5000 BR NCD M03/M03 Q1031
ETIH - Hohenfels (usa-A, Germany
Entfernung von Station: SSW 124km
Aktualisierung: 16.02.2019 03:56
Klar
Klar
 Wind von calm
Wind: Windstill
Temperatur: -5°C
Taupunkt: -5°C
Luftfeuchte: 100%
Luftdruck: 1030.1 hPa
Wolken: Klar
Sicht: 10 km
2019/02/16 02:56 ETIH 160256Z AUTO 00000KT 9999 CLR M05/M05 A3042 RMK AO2 SLP323 T10471047 57010 $
 
EDDE - Erfurt/Bindersleben, Germany
Entfernung von Station: NW 129km
Aktualisierung: 16.02.2019 04:20
Klar
Klar
 Wind von SSW
Wind: SSW 13 km/h
Temperatur: 5°C
Windkühle: 2°C
Taupunkt: -4°C
Luftfeuchte: 53%
Luftdruck: 1027 hPa
Zusammenfassung: Klar
Sicht: mehr als 10 km
2019/02/16 03:20 EDDE 160320Z 21007KT CAVOK 05/M04 Q1027
EDDP - Leipzig/Schkeudidtz, Germany
Entfernung von Station: N 129km
Aktualisierung: 16.02.2019 04:20
Klar
Klar
 Wind von S
Wind: S 19 km/h
Temperatur: 2°C
Windkühle: -2°C
Taupunkt: -1°C
Luftfeuchte: 81%
Luftdruck: 1028 hPa
Zusammenfassung: Klar
Sicht: mehr als 10 km
2019/02/16 03:20 EDDP 160320Z 17010KT CAVOK 02/M01 Q1028 NOSIG
 
EDDN - Nuernberg, Germany
Entfernung von Station: SW 130km
Aktualisierung: 16.02.2019 04:20
Klar
Klar
 Wind von NNW
Wind: NNW 2 km/h
Temperatur: -3°C
Taupunkt: -4°C
Luftfeuchte: 93%
Luftdruck: 1030 hPa
Zusammenfassung: Klar
Sicht: mehr als 10 km
2019/02/16 03:20 EDDN 160320Z 33001KT CAVOK M03/M04 Q1030
LKPR - Prague/Ruzyne, Czech Republic
Entfernung von Station: O 133km
Aktualisierung: 16.02.2019 04:00
Klar
Klar
 Wind von SW
Wind: SW 4 km/h
Temperatur: 0°C
Taupunkt: -2°C
Luftfeuchte: 87%
Luftdruck: 1030 hPa
Zusammenfassung: Klar
Sicht: mehr als 10 km
2019/02/16 03:00 LKPR 160300Z 23002KT CAVOK M00/M02 Q1030 NOSIG
 
EDDC - Dresden/Klotzsche, Germany
Entfernung von Station: NO 134km
Aktualisierung: 16.02.2019 04:20
Klar
Klar
 Wind von S
Wind: S 7 km/h
Temperatur: 1°C
Windkühle: -2°C
Taupunkt: -2°C
Luftfeuchte: 81%
Luftdruck: 1028 hPa
Zusammenfassung: Klar
Sicht: mehr als 10 km
2019/02/16 03:20 EDDC 160320Z 17004KT 120V230 CAVOK 01/M02 Q1028
Besucherstatistik
Besucher gesamt: 1.310.553
Besucher heute: 1.741
Besucher gestern: 9.406
gerade online: 98
Seitenaufrufe diese Seite: 4.114
counter Statistiken